Time;durP1;ratioP1;P1;durP2;ratioP2;P2;SDS_P1;SDS_P2;PMS_P1;PMS_P2;Temp;Humidity;BMP_temperature;BMP_pressure;BME280_temperature;BME280_humidity;BME280_pressure;Samples;Min_cycle;Max_cycle;Signal;HPM_P1;HPM_P2
2023/02/16 00:00:37;;;;;;;82.13;40.80;;;5.60;99.90;;;;;;4824023;29;20236;-62
2023/02/16 00:03:43;;;;;;;81.53;42.80;;;5.60;99.90;;;;;;4822636;29;20707;-62
2023/02/16 00:06:50;;;;;;;93.27;43.60;;;5.50;99.90;;;;;;4822829;29;20245;-62
2023/02/16 00:09:56;;;;;;;86.07;43.37;;;5.50;99.90;;;;;;4827669;29;20307;-63
2023/02/16 00:16:38;;;;;;;86.27;42.40;;;5.50;99.90;;;;;;4828159;29;20278;-63
2023/02/16 00:19:44;;;;;;;91.17;42.53;;;5.50;99.90;;;;;;4821375;29;20280;-63
2023/02/16 00:22:50;;;;;;;88.13;41.13;;;5.50;99.90;;;;;;4820328;29;20263;-62
2023/02/16 00:25:56;;;;;;;86.60;41.47;;;5.50;99.90;;;;;;4825266;29;20284;-62
2023/02/16 00:29:04;;;;;;;91.93;41.77;;;5.50;99.90;;;;;;4825998;29;20196;-62
2023/02/16 00:32:12;;;;;;;95.63;44.70;;;5.50;99.90;;;;;;4821523;29;20637;-62
2023/02/16 00:35:20;;;;;;;88.80;41.90;;;5.50;99.90;;;;;;4829724;29;20361;-62
2023/02/16 00:38:26;;;;;;;90.97;42.27;;;5.50;99.90;;;;;;4829904;29;20231;-62
2023/02/16 00:41:50;;;;;;;95.17;43.97;;;5.50;99.90;;;;;;4827671;29;20560;-62
2023/02/16 00:44:58;;;;;;;82.33;42.13;;;5.50;99.90;;;;;;4823157;29;20231;-62
2023/02/16 00:48:05;;;;;;;95.20;44.30;;;5.40;99.90;;;;;;4821402;29;20204;-63
2023/02/16 00:51:11;;;;;;;93.23;43.10;;;5.50;99.90;;;;;;4822341;29;20231;-62
2023/02/16 00:54:30;;;;;;;97.20;43.90;;;5.60;99.90;;;;;;4820971;29;20267;-62
2023/02/16 00:57:40;;;;;;;92.00;44.47;;;5.60;99.90;;;;;;4820658;29;20261;-62
2023/02/16 01:00:50;;;;;;;90.50;43.27;;;5.60;99.90;;;;;;4814115;29;20357;-62
2023/02/16 01:03:56;;;;;;;87.87;42.37;;;5.60;99.90;;;;;;4816313;29;20235;-63
2023/02/16 01:13:59;;;;;;;88.90;41.83;;;5.60;99.90;;;;;;4806353;29;20345;-63
2023/02/16 01:17:06;;;;;;;83.20;40.83;;;5.70;99.90;;;;;;4818665;29;20265;-62
2023/02/16 01:20:15;;;;;;;89.43;42.43;;;5.70;99.90;;;;;;4819776;29;20280;-62
2023/02/16 01:23:21;;;;;;;93.73;43.03;;;5.70;99.90;;;;;;4819301;29;20266;-63
2023/02/16 01:26:27;;;;;;;84.73;42.47;;;5.70;99.90;;;;;;4822679;29;20342;-62
2023/02/16 01:29:33;;;;;;;87.13;42.50;;;5.70;99.90;;;;;;4820260;29;20211;-63
2023/02/16 01:32:40;;;;;;;88.03;42.53;;;5.70;99.90;;;;;;4819078;29;20259;-63
2023/02/16 01:35:46;;;;;;;95.53;43.57;;;5.70;99.90;;;;;;4819369;29;20232;-62
2023/02/16 01:38:53;;;;;;;87.17;42.83;;;5.80;99.90;;;;;;4819905;29;20598;-62
2023/02/16 01:42:12;;;;;;;82.90;42.47;;;5.70;99.90;;;;;;4824772;29;20235;-63
2023/02/16 01:45:23;;;;;;;84.67;41.07;;;5.70;99.90;;;;;;4822245;29;20893;-63
2023/02/16 01:48:31;;;;;;;84.23;40.97;;;5.60;99.90;;;;;;4820037;29;20253;-62
2023/02/16 01:51:48;;;;;;;85.07;41.90;;;5.60;99.90;;;;;;4819570;29;20288;-62
2023/02/16 01:54:58;;;;;;;83.47;41.63;;;5.70;99.90;;;;;;4820561;29;20243;-62
2023/02/16 01:58:13;;;;;;;85.70;40.83;;;5.60;99.90;;;;;;4820592;29;20247;-62
2023/02/16 02:01:39;;;;;;;88.23;42.40;;;5.70;99.90;;;;;;4818838;29;20267;-62
2023/02/16 02:08:21;;;;;;;89.23;42.30;;;5.60;99.90;;;;;;4821412;29;20204;-62
2023/02/16 02:11:30;;;;;;;81.70;41.63;;;5.60;99.90;;;;;;4820657;29;20212;-62
2023/02/16 02:14:38;;;;;;;84.33;41.03;;;5.60;99.90;;;;;;4826548;29;20199;-62
2023/02/16 02:17:44;;;;;;;83.23;40.00;;;5.70;99.90;;;;;;4815944;29;20304;-62
2023/02/16 02:24:58;;;;;;;82.63;40.67;;;5.70;99.90;;;;;;4826178;29;20292;-62
2023/02/16 02:28:11;;;;;;;81.60;40.23;;;5.60;99.90;;;;;;4806220;29;20269;-62
2023/02/16 02:31:26;;;;;;;80.73;39.80;;;5.70;99.90;;;;;;4822982;29;20239;-62
2023/02/16 02:34:48;;;;;;;81.43;39.87;;;5.60;99.90;;;;;;4824596;29;20227;-62
2023/02/16 02:38:00;;;;;;;82.03;41.00;;;5.70;99.90;;;;;;4814017;29;20240;-62
2023/02/16 02:41:14;;;;;;;82.67;38.70;;;5.60;99.90;;;;;;4824332;29;20311;-62
2023/02/16 02:44:25;;;;;;;82.37;38.23;;;5.60;99.90;;;;;;4818305;29;20204;-63
2023/02/16 02:47:42;;;;;;;79.47;37.90;;;5.60;99.90;;;;;;4814520;29;20832;-62
2023/02/16 03:01:18;;;;;;;79.67;38.93;;;5.60;99.90;;;;;;4821972;29;20288;-63
2023/02/16 03:04:28;;;;;;;84.23;39.93;;;5.50;99.90;;;;;;4820813;29;20203;-63
2023/02/16 03:07:49;;;;;;;75.63;37.53;;;5.50;99.90;;;;;;4816729;29;20302;-62
2023/02/16 03:14:27;;;;;;;79.97;38.07;;;5.50;99.90;;;;;;4828608;29;20232;-62
2023/02/16 03:31:23;;;;;;;77.53;38.73;;;5.60;99.90;;;;;;4827507;29;20239;-62
2023/02/16 03:34:32;;;;;;;72.20;36.37;;;5.70;99.90;;;;;;4825406;29;20256;-62
2023/02/16 03:37:38;;;;;;;75.27;37.63;;;5.80;99.90;;;;;;4823175;29;20228;-63
2023/02/16 03:40:46;;;;;;;71.23;36.63;;;5.90;99.90;;;;;;4824097;29;20235;-62
2023/02/16 03:43:52;;;;;;;74.33;37.77;;;5.90;99.90;;;;;;4824757;29;20208;-63
2023/02/16 03:46:58;;;;;;;71.30;35.87;;;6.00;99.90;;;;;;4825264;29;20278;-62
2023/02/16 03:50:07;;;;;;;66.40;36.53;;;6.00;99.90;;;;;;4822742;29;20311;-62
2023/02/16 03:53:12;;;;;;;71.83;35.83;;;6.10;99.90;;;;;;4829356;29;20276;-62
2023/02/16 03:56:19;;;;;;;67.57;35.77;;;6.20;99.90;;;;;;4820097;29;20231;-62
2023/02/16 03:59:25;;;;;;;73.63;35.90;;;6.20;99.90;;;;;;4819286;29;20218;-62
2023/02/16 04:02:31;;;;;;;71.77;36.10;;;6.20;99.90;;;;;;4824797;29;20227;-63
2023/02/16 04:05:39;;;;;;;67.37;35.97;;;6.30;99.90;;;;;;4817260;29;20916;-62
2023/02/16 04:08:45;;;;;;;69.83;34.07;;;6.20;99.90;;;;;;4818925;29;20273;-62
2023/02/16 04:15:18;;;;;;;65.47;34.60;;;6.10;99.90;;;;;;4817873;29;20208;-62
2023/02/16 04:18:24;;;;;;;66.73;32.60;;;6.10;99.90;;;;;;4819158;29;20310;-62
2023/02/16 04:21:31;;;;;;;63.93;34.13;;;6.10;99.90;;;;;;4818694;29;20271;-62
2023/02/16 04:24:37;;;;;;;66.17;36.40;;;6.10;99.90;;;;;;4819255;29;20216;-63
2023/02/16 04:27:43;;;;;;;62.47;33.10;;;6.20;99.90;;;;;;4820099;29;20201;-63
2023/02/16 04:30:50;;;;;;;67.33;34.87;;;6.20;99.90;;;;;;4819624;29;20212;-62
2023/02/16 04:33:56;;;;;;;62.17;33.03;;;6.30;99.90;;;;;;4819463;29;20232;-63
2023/02/16 04:37:04;;;;;;;70.10;35.23;;;6.30;99.90;;;;;;4821083;29;20581;-63
2023/02/16 04:40:13;;;;;;;64.57;35.67;;;6.40;99.90;;;;;;4819793;29;20227;-62
2023/02/16 04:43:19;;;;;;;67.03;34.37;;;6.30;99.90;;;;;;4820586;29;20204;-62
2023/02/16 04:46:25;;;;;;;62.30;34.70;;;6.40;99.90;;;;;;4821986;29;20212;-62
2023/02/16 04:49:31;;;;;;;58.23;32.63;;;6.40;99.90;;;;;;4820056;29;20244;-63
2023/02/16 04:52:40;;;;;;;61.73;33.07;;;6.40;99.90;;;;;;4820477;29;20227;-63
2023/02/16 04:55:47;;;;;;;66.53;34.37;;;6.40;99.90;;;;;;4818658;29;20240;-63
2023/02/16 04:58:53;;;;;;;65.17;33.73;;;6.40;99.90;;;;;;4825105;29;20243;-63
2023/02/16 05:01:59;;;;;;;67.90;34.37;;;6.40;99.90;;;;;;4822085;29;20251;-62
2023/02/16 05:05:05;;;;;;;61.77;34.17;;;6.50;99.90;;;;;;4816908;29;20302;-63
2023/02/16 05:08:13;;;;;;;61.33;33.03;;;6.50;99.90;;;;;;4826931;29;20311;-64
2023/02/16 05:14:43;;;;;;;60.33;32.50;;;6.50;99.90;;;;;;4822341;29;20220;-63
2023/02/16 05:17:49;;;;;;;63.73;33.37;;;6.50;99.90;;;;;;4821363;29;20239;-63
2023/02/16 05:24:19;;;;;;;63.67;33.30;;;6.50;99.90;;;;;;4823492;29;20277;-64
2023/02/16 05:27:26;;;;;;;68.80;33.53;;;6.50;99.90;;;;;;4825307;29;20219;-63
2023/02/16 05:30:32;;;;;;;64.20;33.43;;;6.60;99.90;;;;;;4825411;29;20208;-63
2023/02/16 05:33:38;;;;;;;59.13;32.37;;;6.50;99.90;;;;;;4816951;29;20247;-63
2023/02/16 05:36:44;;;;;;;63.10;33.07;;;6.50;99.90;;;;;;4822061;29;20207;-63
2023/02/16 05:39:52;;;;;;;62.17;32.17;;;6.50;99.90;;;;;;4821334;29;20208;-62
2023/02/16 05:42:58;;;;;;;61.93;32.17;;;6.50;99.90;;;;;;4815721;29;20216;-63
2023/02/16 05:46:07;;;;;;;66.00;32.97;;;6.50;99.90;;;;;;4818076;29;20630;-63
2023/02/16 05:49:15;;;;;;;61.40;34.10;;;6.50;99.90;;;;;;4824737;29;20227;-63
2023/02/16 05:52:20;;;;;;;69.57;33.97;;;6.50;99.90;;;;;;4821531;29;20214;-63
2023/02/16 05:55:28;;;;;;;59.33;33.07;;;6.40;99.90;;;;;;4815950;29;20556;-63
2023/02/16 05:58:34;;;;;;;60.00;32.77;;;6.50;99.90;;;;;;4817487;29;20227;-63
2023/02/16 06:01:40;;;;;;;67.37;34.87;;;6.50;99.90;;;;;;4816477;29;20237;-63
2023/02/16 06:04:46;;;;;;;61.37;32.43;;;6.50;99.90;;;;;;4817457;29;20637;-63
2023/02/16 06:07:53;;;;;;;65.73;32.50;;;6.60;99.90;;;;;;4820995;29;20235;-63
2023/02/16 06:11:00;;;;;;;59.83;32.57;;;6.60;99.90;;;;;;4819297;29;20271;-63
2023/02/16 06:14:09;;;;;;;60.50;32.63;;;6.70;99.90;;;;;;4812790;29;20209;-63
2023/02/16 06:17:15;;;;;;;61.00;32.67;;;6.60;99.90;;;;;;4819949;29;20760;-63
2023/02/16 06:20:21;;;;;;;58.80;31.70;;;6.60;99.90;;;;;;4820428;29;20273;-63
2023/02/16 06:23:27;;;;;;;59.23;31.57;;;6.60;99.90;;;;;;4820977;29;20303;-63
2023/02/16 06:26:34;;;;;;;60.50;32.33;;;6.60;99.90;;;;;;4819237;29;20772;-63
2023/02/16 06:29:39;;;;;;;58.80;32.00;;;6.50;99.90;;;;;;4819919;29;20719;-63
2023/02/16 06:32:45;;;;;;;57.00;32.00;;;6.50;99.90;;;;;;4816872;29;20636;-63
2023/02/16 06:35:51;;;;;;;57.50;31.67;;;6.50;99.90;;;;;;4823052;29;20253;-63
2023/02/16 06:38:57;;;;;;;58.03;32.13;;;6.60;99.90;;;;;;4815212;29;20236;-63
2023/02/16 06:42:04;;;;;;;63.77;32.97;;;6.60;99.90;;;;;;4819587;29;20653;-62
2023/02/16 06:45:10;;;;;;;60.00;33.90;;;6.50;99.90;;;;;;4815865;29;20564;-63
2023/02/16 06:48:16;;;;;;;61.13;32.33;;;6.50;99.90;;;;;;4820074;29;20274;-63
2023/02/16 06:51:22;;;;;;;58.80;32.47;;;6.50;99.90;;;;;;4816770;29;20301;-62
2023/02/16 06:54:28;;;;;;;57.13;30.70;;;6.50;99.90;;;;;;4825483;29;20711;-63
2023/02/16 06:57:35;;;;;;;57.47;30.67;;;6.50;99.90;;;;;;4813332;29;20281;-63
2023/02/16 07:00:41;;;;;;;60.40;32.93;;;6.50;99.90;;;;;;4812600;29;20304;-63
2023/02/16 07:03:46;;;;;;;59.60;32.57;;;6.50;99.90;;;;;;4817725;29;20966;-63
2023/02/16 07:06:52;;;;;;;63.50;32.00;;;6.50;99.90;;;;;;4815219;29;20246;-62
2023/02/16 07:09:58;;;;;;;60.67;31.87;;;6.60;99.90;;;;;;4815521;29;20281;-62
2023/02/16 07:13:05;;;;;;;61.97;32.80;;;6.60;99.90;;;;;;4821085;29;20228;-63
2023/02/16 07:16:13;;;;;;;55.27;29.80;;;6.60;99.90;;;;;;4825661;29;20816;-63
2023/02/16 07:19:18;;;;;;;59.50;32.00;;;6.60;99.90;;;;;;4820265;29;20228;-63
2023/02/16 07:22:24;;;;;;;56.07;31.27;;;6.70;99.90;;;;;;4822876;29;20318;-63
2023/02/16 07:25:30;;;;;;;59.37;31.70;;;6.70;99.90;;;;;;4828000;29;20224;-63
2023/02/16 07:28:37;;;;;;;55.83;30.60;;;6.70;99.90;;;;;;4821010;29;20239;-62
2023/02/16 07:31:43;;;;;;;55.60;30.77;;;6.70;99.90;;;;;;4824482;29;20262;-63
2023/02/16 07:34:50;;;;;;;56.20;31.10;;;6.80;99.90;;;;;;4824143;29;20235;-63
2023/02/16 07:37:55;;;;;;;62.37;32.43;;;6.80;99.90;;;;;;4817850;29;20280;-63
2023/02/16 07:41:02;;;;;;;59.60;31.07;;;6.90;99.90;;;;;;4821346;29;20200;-63
2023/02/16 07:44:12;;;;;;;56.77;29.80;;;6.90;99.90;;;;;;4821018;29;20260;-63
2023/02/16 07:47:19;;;;;;;60.53;31.93;;;6.90;99.90;;;;;;4819079;29;20241;-63
2023/02/16 07:50:25;;;;;;;57.17;31.30;;;7.00;99.90;;;;;;4824998;29;20715;-63
2023/02/16 07:53:30;;;;;;;58.97;32.07;;;7.00;99.90;;;;;;4823478;29;20234;-63
2023/02/16 07:56:36;;;;;;;60.07;31.50;;;7.00;99.90;;;;;;4826254;29;20300;-63
2023/02/16 07:59:43;;;;;;;64.33;33.00;;;7.00;99.90;;;;;;4822921;29;20272;-63
2023/02/16 08:02:49;;;;;;;63.83;32.07;;;7.00;99.90;;;;;;4823465;29;20260;-63
2023/02/16 08:05:56;;;;;;;59.33;32.70;;;7.00;99.90;;;;;;4827815;29;20247;-63
2023/02/16 08:09:01;;;;;;;57.93;31.70;;;7.00;99.90;;;;;;4818996;29;20289;-62
2023/02/16 08:12:09;;;;;;;60.33;32.70;;;7.00;99.90;;;;;;4817958;29;20282;-64
2023/02/16 08:15:17;;;;;;;57.67;31.53;;;7.00;99.90;;;;;;4823868;29;20257;-63
2023/02/16 08:18:24;;;;;;;62.67;31.97;;;7.00;99.90;;;;;;4823814;29;20203;-63
2023/02/16 08:21:32;;;;;;;58.83;32.03;;;7.00;99.90;;;;;;4821460;29;20219;-63
2023/02/16 08:24:38;;;;;;;60.87;31.60;;;7.10;99.90;;;;;;4818755;29;20266;-63
2023/02/16 08:27:44;;;;;;;59.37;32.07;;;7.10;99.90;;;;;;4822188;29;20232;-63
2023/02/16 08:30:52;;;;;;;56.53;31.43;;;7.20;99.90;;;;;;4819945;29;20258;-62
2023/02/16 08:34:00;;;;;;;58.40;32.43;;;7.20;99.90;;;;;;4821496;29;20335;-63
2023/02/16 08:37:08;;;;;;;61.83;33.07;;;7.20;99.90;;;;;;4819454;29;20211;-63
2023/02/16 08:40:15;;;;;;;63.77;34.23;;;7.20;99.90;;;;;;4817186;29;20269;-63
2023/02/16 08:43:22;;;;;;;61.23;33.57;;;7.30;99.90;;;;;;4820487;29;20577;-64
2023/02/16 08:46:36;;;;;;;62.23;33.13;;;7.40;99.90;;;;;;4823487;29;20320;-63
2023/02/16 08:49:43;;;;;;;62.40;33.33;;;7.50;99.90;;;;;;4822022;29;20223;-63
2023/02/16 08:52:49;;;;;;;62.37;32.90;;;7.50;99.90;;;;;;4824282;29;20469;-63
2023/02/16 08:55:56;;;;;;;68.07;34.53;;;7.50;99.90;;;;;;4819016;29;20241;-63
2023/02/16 08:59:02;;;;;;;58.73;32.53;;;7.60;99.90;;;;;;4821821;29;20232;-63
2023/02/16 09:02:10;;;;;;;60.50;33.40;;;7.70;99.90;;;;;;4817212;29;20199;-63
2023/02/16 09:05:17;;;;;;;68.00;33.47;;;7.60;99.90;;;;;;4819397;29;20580;-63
2023/02/16 09:08:23;;;;;;;68.13;33.73;;;7.60;99.90;;;;;;4820560;29;20244;-63
2023/02/16 09:11:28;;;;;;;63.57;33.83;;;7.60;99.90;;;;;;4824677;29;20227;-63
2023/02/16 09:14:35;;;;;;;61.40;32.83;;;7.50;99.90;;;;;;4822016;29;20208;-63
2023/02/16 09:17:43;;;;;;;60.53;32.63;;;7.60;99.90;;;;;;4816066;29;20220;-63
2023/02/16 09:20:49;;;;;;;63.93;33.53;;;7.70;99.90;;;;;;4821935;29;20311;-63
2023/02/16 09:23:57;;;;;;;61.20;32.37;;;7.90;99.90;;;;;;4817976;29;20237;-63
2023/02/16 09:27:03;;;;;;;62.53;32.73;;;7.90;99.90;;;;;;4819617;29;20227;-63
2023/02/16 09:30:09;;;;;;;56.90;32.40;;;7.90;99.90;;;;;;4823128;29;20273;-63
2023/02/16 09:33:17;;;;;;;59.80;31.97;;;7.70;99.90;;;;;;4815359;29;20341;-63
2023/02/16 09:36:22;;;;;;;53.50;30.90;;;7.60;99.90;;;;;;4817330;29;20231;-63
2023/02/16 09:39:28;;;;;;;64.73;32.73;;;7.60;99.90;;;;;;4818950;29;20392;-63
2023/02/16 09:42:54;;;;;;;57.47;31.83;;;7.60;99.90;;;;;;4818861;29;20568;-63
2023/02/16 09:46:02;;;;;;;58.87;31.53;;;7.70;99.90;;;;;;4820440;29;20256;-63
2023/02/16 09:49:26;;;;;;;59.63;31.70;;;8.00;99.90;;;;;;4821092;29;20235;-63
2023/02/16 09:52:36;;;;;;;57.57;31.70;;;8.20;99.90;;;;;;4818598;29;20638;-63
2023/02/16 09:55:53;;;;;;;53.43;30.13;;;8.40;99.90;;;;;;4818327;29;20650;-63
2023/02/16 09:59:05;;;;;;;52.70;29.77;;;8.50;99.90;;;;;;4820309;29;20271;-63
2023/02/16 10:02:35;;;;;;;55.03;31.03;;;8.70;99.90;;;;;;4813463;29;20213;-63
2023/02/16 10:05:47;;;;;;;52.13;29.73;;;8.80;99.90;;;;;;4817838;29;20231;-63
2023/02/16 10:08:57;;;;;;;53.47;32.13;;;8.80;99.90;;;;;;4814382;29;20288;-64
2023/02/16 10:12:09;;;;;;;55.10;30.07;;;8.80;99.90;;;;;;4816787;29;20769;-63
2023/02/16 10:15:19;;;;;;;61.00;31.87;;;8.90;99.90;;;;;;4819917;29;20203;-63
2023/02/16 10:18:29;;;;;;;50.07;29.17;;;8.80;99.90;;;;;;4821958;29;20219;-62
2023/02/16 10:21:36;;;;;;;52.07;28.33;;;9.00;99.90;;;;;;4811503;29;20270;-63
2023/02/16 10:24:50;;;;;;;55.80;28.87;;;8.90;99.90;;;;;;4817889;29;20251;-63
2023/02/16 10:28:07;;;;;;;48.80;28.03;;;9.00;99.90;;;;;;4824428;29;20258;-63
2023/02/16 10:31:19;;;;;;;54.07;28.83;;;9.10;99.90;;;;;;4817112;29;20252;-63
2023/02/16 10:34:39;;;;;;;49.97;26.80;;;9.40;99.90;;;;;;4820286;29;20215;-63
2023/02/16 10:37:58;;;;;;;46.90;27.57;;;9.80;99.90;;;;;;4817784;29;20212;-63
2023/02/16 10:41:12;;;;;;;45.60;26.83;;;10.10;99.90;;;;;;4816219;29;20731;-63
2023/02/16 10:44:23;;;;;;;43.47;25.77;;;10.10;99.90;;;;;;4818427;29;20608;-63
2023/02/16 10:47:37;;;;;;;48.90;27.27;;;10.00;99.90;;;;;;4817763;29;20265;-62
2023/02/16 10:50:48;;;;;;;54.07;27.73;;;9.90;99.90;;;;;;4821051;29;20322;-63
2023/02/16 10:53:59;;;;;;;48.87;27.47;;;10.00;99.90;;;;;;4821927;29;20240;-63
2023/02/16 10:57:06;;;;;;;44.37;26.77;;;10.20;99.90;;;;;;4819928;29;20747;-63
2023/02/16 11:00:18;;;;;;;49.07;28.30;;;10.30;99.90;;;;;;4826023;29;20223;-63
2023/02/16 11:03:30;;;;;;;44.67;25.87;;;10.20;99.90;;;;;;4821429;29;20212;-63
2023/02/16 11:06:37;;;;;;;46.37;26.43;;;10.20;99.90;;;;;;4821912;29;20231;-63
2023/02/16 11:09:46;;;;;;;42.03;25.37;;;10.30;99.90;;;;;;4822484;29;20277;-63
2023/02/16 11:12:56;;;;;;;43.30;25.47;;;10.70;99.90;;;;;;4823392;29;20231;-63
2023/02/16 11:16:09;;;;;;;41.50;24.27;;;11.10;99.90;;;;;;4820590;29;20221;-63
2023/02/16 11:19:21;;;;;;;42.07;24.80;;;11.40;99.90;;;;;;4819867;29;20220;-64
2023/02/16 11:22:35;;;;;;;38.20;23.93;;;11.60;99.90;;;;;;4827181;29;20235;-63
2023/02/16 11:25:42;;;;;;;37.53;23.57;;;11.80;99.90;;;;;;4827171;29;20296;-63
2023/02/16 11:28:49;;;;;;;42.93;23.30;;;12.00;99.90;;;;;;4824665;29;20243;-63
2023/02/16 11:31:56;;;;;;;38.73;24.07;;;11.70;99.90;;;;;;4821043;29;20548;-63
2023/02/16 11:35:09;;;;;;;40.43;24.30;;;11.50;99.90;;;;;;4821882;29;20244;-63
2023/02/16 11:38:28;;;;;;;39.77;23.37;;;11.50;99.90;;;;;;4822131;29;20340;-63
2023/02/16 11:41:37;;;;;;;39.33;22.50;;;11.50;99.90;;;;;;4829094;29;20307;-63
2023/02/16 11:44:48;;;;;;;36.63;23.33;;;11.80;99.90;;;;;;4821894;29;20232;-64
2023/02/16 11:47:58;;;;;;;36.80;22.60;;;11.70;99.90;;;;;;4820125;29;20204;-63
2023/02/16 11:51:06;;;;;;;40.33;22.53;;;11.80;99.90;;;;;;4822765;29;20223;-64
2023/02/16 11:54:17;;;;;;;38.27;22.43;;;12.10;99.90;;;;;;4819394;29;20280;-64
2023/02/16 11:57:28;;;;;;;35.03;20.63;;;12.30;99.90;;;;;;4821826;29;20643;-64
2023/02/16 12:00:34;;;;;;;42.77;22.30;;;12.70;99.90;;;;;;4828306;29;20219;-64
2023/02/16 12:04:07;;;;;;;34.63;20.83;;;12.90;99.90;;;;;;4825012;29;20269;-63
2023/02/16 12:07:21;;;;;;;30.90;20.57;;;13.20;99.90;;;;;;4813496;29;20332;-63
2023/02/16 12:10:37;;;;;;;31.93;20.03;;;13.70;99.90;;;;;;4820103;29;20247;-64
2023/02/16 12:13:53;;;;;;;32.27;19.47;;;13.70;99.90;;;;;;4818288;29;20239;-63
2023/02/16 12:17:12;;;;;;;33.07;19.60;;;13.40;99.90;;;;;;4819771;29;20204;-64
2023/02/16 12:20:31;;;;;;;32.50;20.13;;;13.10;99.90;;;;;;4815881;29;20261;-63
2023/02/16 12:23:42;;;;;;;38.03;20.77;;;12.80;99.90;;;;;;4820886;29;20549;-63
2023/02/16 12:26:51;;;;;;;34.30;22.00;;;12.80;99.90;;;;;;4827407;29;20235;-63
2023/02/16 12:30:08;;;;;;;31.70;20.33;;;12.90;99.90;;;;;;4822464;29;20621;-64
2023/02/16 12:33:38;;;;;;;37.07;19.77;;;13.10;99.90;;;;;;4821895;29;20791;-64
2023/02/16 12:36:57;;;;;;;31.57;19.30;;;13.20;99.90;;;;;;4827167;29;20243;-63
2023/02/16 12:40:16;;;;;;;33.20;20.63;;;13.40;99.90;;;;;;4820528;29;20236;-62
2023/02/16 12:43:34;;;;;;;32.83;19.90;;;13.30;99.90;;;;;;4823098;29;20224;-62
2023/02/16 12:46:43;;;;;;;31.50;19.80;;;13.40;99.90;;;;;;4823325;29;20337;-62
2023/02/16 12:49:53;;;;;;;38.30;20.50;;;13.30;99.90;;;;;;4823948;29;20223;-62
2023/02/16 12:53:04;;;;;;;38.23;20.67;;;13.20;99.90;;;;;;4818689;29;20232;-63
2023/02/16 12:56:16;;;;;;;42.37;21.23;;;13.20;99.90;;;;;;4825823;29;20647;-62
2023/02/16 12:59:29;;;;;;;32.33;20.27;;;13.10;99.90;;;;;;4822956;29;20780;-62
2023/02/16 13:02:42;;;;;;;39.33;21.33;;;13.10;99.90;;;;;;4818609;29;20220;-62
2023/02/16 13:05:53;;;;;;;35.50;21.50;;;13.10;99.90;;;;;;4823087;29;20749;-62
2023/02/16 13:09:10;;;;;;;35.60;21.10;;;13.10;99.90;;;;;;4819911;29;20240;-62
2023/02/16 13:12:26;;;;;;;33.87;20.87;;;13.10;99.90;;;;;;4825412;29;20715;-63
2023/02/16 13:15:35;;;;;;;36.87;21.27;;;13.10;99.90;;;;;;4817169;29;20719;-62
2023/02/16 13:18:46;;;;;;;33.30;20.30;;;13.30;99.90;;;;;;4820026;29;20256;-62
2023/02/16 13:22:17;;;;;;;33.67;19.67;;;13.10;99.90;;;;;;4824721;29;20772;-62
2023/02/16 13:25:57;;;;;;;39.50;20.60;;;12.90;99.90;;;;;;4819879;29;20292;-62
2023/02/16 13:29:28;;;;;;;38.33;21.33;;;12.80;99.90;;;;;;4823259;29;20273;-62
2023/02/16 13:32:56;;;;;;;34.67;20.70;;;12.80;99.90;;;;;;4820569;29;20199;-63
2023/02/16 13:36:26;;;;;;;35.33;20.60;;;12.80;99.90;;;;;;4818320;29;20223;-62
2023/02/16 13:39:59;;;;;;;35.50;20.63;;;12.80;99.90;;;;;;4819899;29;20234;-62
2023/02/16 13:43:23;;;;;;;35.03;20.50;;;12.80;99.90;;;;;;4822466;29;20236;-63
2023/02/16 13:46:32;;;;;;;38.93;21.07;;;12.90;99.90;;;;;;4823072;29;20714;-62
2023/02/16 13:49:42;;;;;;;31.70;19.37;;;13.00;99.90;;;;;;4821895;29;20655;-62
2023/02/16 13:52:51;;;;;;;32.40;20.30;;;13.10;99.90;;;;;;4819149;29;20280;-62
2023/02/16 13:56:20;;;;;;;36.23;20.40;;;13.00;99.90;;;;;;4814364;29;20221;-63
2023/02/16 14:00:04;;;;;;;29.90;18.20;;;13.10;99.90;;;;;;4825568;29;20291;-62
2023/02/16 14:03:14;;;;;;;28.70;19.00;;;13.00;99.90;;;;;;4821318;29;20232;-62
2023/02/16 14:06:35;;;;;;;31.53;18.67;;;13.10;99.90;;;;;;4826569;29;20214;-62
2023/02/16 14:09:49;;;;;;;28.67;19.10;;;13.20;99.90;;;;;;4816417;29;20296;-63
2023/02/16 14:12:55;;;;;;;34.00;19.80;;;13.10;99.90;;;;;;4820833;29;20251;-63
2023/02/16 14:16:05;;;;;;;31.70;19.37;;;13.00;99.90;;;;;;4819735;29;20228;-63
2023/02/16 14:19:19;;;;;;;32.43;19.40;;;13.00;99.90;;;;;;4819002;29;20827;-62
2023/02/16 14:22:33;;;;;;;29.83;19.13;;;13.00;99.90;;;;;;4823471;29;20706;-62
2023/02/16 14:25:41;;;;;;;34.00;19.00;;;13.00;99.90;;;;;;4823304;29;20312;-62
2023/02/16 14:29:14;;;;;;;32.03;18.03;;;12.90;99.90;;;;;;4820517;29;20639;-63
2023/02/16 14:32:25;;;;;;;31.67;18.83;;;12.80;99.90;;;;;;4824277;29;20200;-63
2023/02/16 14:35:34;;;;;;;25.37;17.57;;;12.80;99.90;;;;;;4822409;29;20334;-63
2023/02/16 14:38:46;;;;;;;30.63;17.73;;;12.80;99.90;;;;;;4819105;29;20239;-62
2023/02/16 14:41:54;;;;;;;31.07;17.83;;;12.80;99.90;;;;;;4828383;29;20758;-62
2023/02/16 14:45:36;;;;;;;27.03;16.30;;;12.70;99.90;;;;;;4824541;29;20308;-62
2023/02/16 14:49:07;;;;;;;27.90;16.80;;;12.70;99.90;;;;;;4796305;29;20223;-62
2023/02/16 14:52:49;;;;;;;27.03;15.53;;;12.70;99.90;;;;;;4824130;29;20228;-63
2023/02/16 14:56:22;;;;;;;24.63;15.53;;;12.70;99.90;;;;;;4817271;29;20773;-62
2023/02/16 14:59:38;;;;;;;37.30;16.30;;;12.60;99.90;;;;;;4826370;29;20258;-63
2023/02/16 15:02:55;;;;;;;27.30;16.10;;;12.60;99.90;;;;;;4823631;29;20757;-63
2023/02/16 15:06:04;;;;;;;26.00;16.00;;;12.60;99.90;;;;;;4823068;29;20232;-63
2023/02/16 15:09:19;;;;;;;21.77;13.97;;;12.60;99.90;;;;;;4824453;29;20255;-62
2023/02/16 15:12:29;;;;;;;28.70;15.87;;;12.60;99.90;;;;;;4825080;29;20249;-62
2023/02/16 15:15:44;;;;;;;24.10;15.20;;;12.60;99.90;;;;;;4827950;29;20236;-63
2023/02/16 15:18:55;;;;;;;23.90;14.73;;;12.50;99.90;;;;;;4826120;29;20200;-62
2023/02/16 15:22:17;;;;;;;27.27;14.53;;;12.50;99.90;;;;;;4825196;29;20215;-63
2023/02/16 15:25:26;;;;;;;22.63;14.80;;;12.40;99.90;;;;;;4822457;29;20231;-62
2023/02/16 15:28:37;;;;;;;26.93;15.87;;;12.30;99.90;;;;;;4819388;29;20723;-62
2023/02/16 15:31:45;;;;;;;28.50;15.80;;;12.20;99.90;;;;;;4819413;29;20232;-62
2023/02/16 15:34:51;;;;;;;31.23;16.23;;;12.00;99.90;;;;;;4823770;29;20204;-62
2023/02/16 15:38:18;;;;;;;24.60;15.80;;;12.00;99.90;;;;;;4821006;29;20227;-62
2023/02/16 15:41:28;;;;;;;29.70;16.87;;;11.90;99.90;;;;;;4823110;29;20281;-62
2023/02/16 15:44:38;;;;;;;27.80;16.37;;;11.90;99.90;;;;;;4825873;29;20273;-62
2023/02/16 15:47:45;;;;;;;29.07;17.57;;;11.90;99.90;;;;;;4822125;29;20212;-63
2023/02/16 15:50:53;;;;;;;28.33;17.67;;;11.90;99.90;;;;;;4823727;29;20300;-62
2023/02/16 15:54:01;;;;;;;26.90;17.00;;;11.80;99.90;;;;;;4822219;29;20247;-63
2023/02/16 15:57:18;;;;;;;29.30;17.90;;;11.80;99.90;;;;;;4821685;29;20224;-62
2023/02/16 16:00:25;;;;;;;33.93;17.27;;;11.80;99.90;;;;;;4824187;29;20718;-62
2023/02/16 16:03:33;;;;;;;30.13;18.27;;;11.70;99.90;;;;;;4820981;29;20779;-63
2023/02/16 16:06:40;;;;;;;27.87;17.60;;;11.70;99.90;;;;;;4817473;29;20252;-62
2023/02/16 16:09:47;;;;;;;37.20;18.30;;;11.60;99.90;;;;;;4815846;29;20378;-62
2023/02/16 16:12:55;;;;;;;29.03;18.00;;;11.60;99.90;;;;;;4822200;29;20321;-63
2023/02/16 16:16:03;;;;;;;31.77;18.03;;;11.60;99.90;;;;;;4821169;29;20285;-62
2023/02/16 16:19:16;;;;;;;36.63;19.13;;;11.60;99.90;;;;;;4814726;29;20736;-63
2023/02/16 16:22:34;;;;;;;32.73;18.23;;;11.50;99.90;;;;;;4826230;29;20242;-63
2023/02/16 16:25:43;;;;;;;37.17;17.60;;;11.60;99.90;;;;;;4825877;29;20231;-62
2023/02/16 16:28:50;;;;;;;27.37;18.17;;;11.60;99.90;;;;;;4818775;29;20224;-63
2023/02/16 16:31:57;;;;;;;32.90;18.13;;;11.60;99.90;;;;;;4819189;29;20239;-62
2023/02/16 16:35:20;;;;;;;31.23;17.27;;;11.60;99.90;;;;;;4823600;29;20756;-63
2023/02/16 16:38:29;;;;;;;33.40;18.03;;;11.60;99.90;;;;;;4820741;29;20231;-62
2023/02/16 16:41:35;;;;;;;30.80;18.10;;;11.60;99.90;;;;;;4824532;29;20232;-63
2023/02/16 16:44:43;;;;;;;34.07;18.23;;;11.50;99.90;;;;;;4829329;29;20231;-63
2023/02/16 16:47:50;;;;;;;30.23;17.60;;;11.50;99.90;;;;;;4813073;29;20726;-64
2023/02/16 16:51:11;;;;;;;28.47;18.33;;;11.50;99.90;;;;;;4819219;29;20203;-61
2023/02/16 16:54:32;;;;;;;38.60;17.90;;;11.60;99.90;;;;;;4816759;29;20223;-62
2023/02/16 16:57:37;;;;;;;35.27;19.13;;;11.50;99.90;;;;;;4817765;29;20207;-62
2023/02/16 17:00:44;;;;;;;33.87;20.27;;;11.50;99.90;;;;;;4834110;29;20292;-61
2023/02/16 17:03:50;;;;;;;37.27;19.17;;;11.40;99.90;;;;;;4815575;29;20835;-62
2023/02/16 17:06:58;;;;;;;33.10;19.07;;;11.30;99.90;;;;;;4822394;29;20215;-62
2023/02/16 17:10:04;;;;;;;31.07;18.70;;;11.20;99.90;;;;;;4818636;29;20248;-62